Weather at Aktion National Airport

Public forecast

Using degrees Celsius for public forecast. Weather courtesy of forecast.io.

Current aviation weather report (METAR) for Aktion National Airport

2022/11/27 08:20 (retrieved 31 minutes ago)

LGPZ 270820Z 09015KT 9999 FEW018 BKN080 15/04 Q1018

Aviation forecast (TAF) for Aktion National Airport

2022/11/27 06:16 (retrieved 3 hours ago)

TAF LGPZ 270500Z 2706/2806 08015KT 9999 SCT015 BKN025 BKN070 TEMPO 2706/2715 07015G25KT